createdAt,value
2022-12-26T00:00:50.155Z,0.00
2022-12-26T00:01:50.193Z,0.00
2022-12-26T00:02:50.213Z,0.00
2022-12-26T00:03:50.307Z,0.00
2022-12-26T00:04:53.537Z,0.00
2022-12-26T00:05:50.095Z,0.00
2022-12-26T00:06:50.018Z,0.00
2022-12-26T00:07:50.275Z,0.00
2022-12-26T00:08:50.088Z,0.00
2022-12-26T00:09:49.996Z,0.00
2022-12-26T00:10:50.045Z,0.00
2022-12-26T00:11:50.043Z,0.00
2022-12-26T00:12:49.952Z,0.00
2022-12-26T00:13:50.029Z,0.00
2022-12-26T00:14:49.922Z,0.00
2022-12-26T00:15:50.019Z,0.00
2022-12-26T00:16:50.032Z,0.00
2022-12-26T00:17:49.983Z,0.00
2022-12-26T00:18:49.958Z,0.00
2022-12-26T00:19:51.698Z,0.00
2022-12-26T00:20:50.008Z,0.00
2022-12-26T00:21:49.862Z,0.00
2022-12-26T00:22:49.877Z,0.00
2022-12-26T00:23:49.886Z,0.00
2022-12-26T00:24:49.915Z,0.00
2022-12-26T00:25:49.900Z,0.00
2022-12-26T00:26:49.931Z,0.00
2022-12-26T00:27:49.910Z,0.00
2022-12-26T00:28:49.842Z,0.00
2022-12-26T00:29:49.774Z,0.00
2022-12-26T00:30:49.832Z,0.00
2022-12-26T00:31:50.005Z,0.00
2022-12-26T00:32:49.843Z,0.00
2022-12-26T00:33:49.781Z,0.00
2022-12-26T00:34:49.772Z,0.00
2022-12-26T00:35:49.705Z,0.00
2022-12-26T00:36:49.765Z,0.00
2022-12-26T00:37:49.708Z,0.00
2022-12-26T00:38:49.801Z,0.00
2022-12-26T00:39:49.814Z,0.00
2022-12-26T00:40:49.736Z,0.00
2022-12-26T00:41:49.733Z,0.00
2022-12-26T00:42:49.733Z,0.00
2022-12-26T00:43:49.728Z,0.00
2022-12-26T00:44:49.940Z,0.00
2022-12-26T00:45:49.850Z,0.00
2022-12-26T00:46:49.635Z,1.00
2022-12-26T00:47:49.578Z,1.00
2022-12-26T00:48:49.539Z,1.00
2022-12-26T00:50:13.406Z,1.00
2022-12-26T00:50:49.601Z,1.00
2022-12-26T00:51:49.510Z,1.00
2022-12-26T00:52:49.601Z,1.00
2022-12-26T00:53:49.497Z,1.00
2022-12-26T00:54:49.499Z,1.00
2022-12-26T00:55:49.447Z,1.00
2022-12-26T00:56:49.540Z,1.00
2022-12-26T00:57:49.431Z,1.00
2022-12-26T00:58:49.439Z,1.00
2022-12-26T00:59:49.426Z,1.00
2022-12-26T01:00:49.475Z,1.00
2022-12-26T01:01:49.759Z,1.00
2022-12-26T01:02:49.608Z,1.00
2022-12-26T01:03:49.465Z,1.00
2022-12-26T01:04:49.376Z,1.00
2022-12-26T01:05:49.380Z,1.00
2022-12-26T01:06:49.347Z,1.00
2022-12-26T01:08:22.573Z,1.00
2022-12-26T01:08:49.297Z,1.00
2022-12-26T01:09:49.397Z,1.00
2022-12-26T01:10:49.788Z,1.00
2022-12-26T01:11:49.304Z,1.00
2022-12-26T01:12:49.316Z,1.00
2022-12-26T01:13:49.228Z,1.00
2022-12-26T01:14:49.235Z,1.00
2022-12-26T01:15:49.766Z,1.00
2022-12-26T01:16:49.339Z,1.00
2022-12-26T01:17:49.147Z,1.00
2022-12-26T01:18:49.249Z,1.00
2022-12-26T01:19:49.253Z,1.00
2022-12-26T01:20:49.192Z,1.00
2022-12-26T01:21:49.183Z,1.00
2022-12-26T01:22:49.221Z,1.00
2022-12-26T01:23:49.908Z,1.00
2022-12-26T01:24:49.184Z,1.00
2022-12-26T01:26:18.728Z,1.00
2022-12-26T01:26:49.195Z,1.00
2022-12-26T01:27:49.208Z,1.00
2022-12-26T01:28:49.132Z,1.00
2022-12-26T01:29:49.071Z,1.00
2022-12-26T01:30:49.117Z,1.00
2022-12-26T01:31:49.171Z,1.00
2022-12-26T01:32:49.095Z,1.00
2022-12-26T01:33:49.188Z,1.00
2022-12-26T01:34:49.107Z,1.00
2022-12-26T01:35:49.010Z,1.00
2022-12-26T01:36:49.021Z,1.00
2022-12-26T01:37:49.021Z,1.00
2022-12-26T01:38:49.077Z,1.00
2022-12-26T01:39:49.083Z,1.00
2022-12-26T01:40:49.044Z,1.00
2022-12-26T01:41:48.950Z,1.00
2022-12-26T01:42:48.994Z,1.00
2022-12-26T01:43:49.022Z,1.00
2022-12-26T01:44:48.973Z,1.00
2022-12-26T01:45:49.069Z,1.00
2022-12-26T01:46:48.886Z,1.00
2022-12-26T01:47:48.887Z,1.00
2022-12-26T01:48:49.453Z,1.00
2022-12-26T01:49:48.903Z,1.00
2022-12-26T01:50:48.927Z,1.00
2022-12-26T01:51:48.856Z,1.00
2022-12-26T01:52:48.895Z,1.00
2022-12-26T01:53:48.820Z,1.00
2022-12-26T01:54:48.832Z,1.00
2022-12-26T01:55:48.788Z,1.00
2022-12-26T01:56:48.797Z,1.00
2022-12-26T01:57:48.834Z,1.00
2022-12-26T01:58:48.807Z,1.00
2022-12-26T01:59:48.745Z,1.00
2022-12-26T02:00:48.769Z,1.00
2022-12-26T02:01:48.951Z,1.00
2022-12-26T02:02:48.799Z,1.00
2022-12-26T02:03:48.738Z,1.00
2022-12-26T02:04:48.699Z,1.00
2022-12-26T02:05:48.697Z,1.00
2022-12-26T02:06:48.714Z,1.00
2022-12-26T02:07:48.654Z,1.00
2022-12-26T02:08:48.722Z,1.00
2022-12-26T02:09:48.737Z,1.00
2022-12-26T02:10:48.634Z,1.00
2022-12-26T02:11:48.692Z,1.00
2022-12-26T02:12:48.651Z,1.00
2022-12-26T02:13:48.660Z,1.00
2022-12-26T02:14:48.661Z,1.00
2022-12-26T02:15:48.778Z,1.00
2022-12-26T02:16:48.681Z,1.00
2022-12-26T02:17:48.647Z,1.00
2022-12-26T02:18:48.591Z,1.00
2022-12-26T02:19:48.592Z,1.00
2022-12-26T02:20:48.598Z,1.00
2022-12-26T02:21:48.609Z,1.00
2022-12-26T02:22:48.502Z,1.00
2022-12-26T02:23:48.525Z,1.00
2022-12-26T02:24:48.525Z,1.00
2022-12-26T02:25:48.529Z,1.00
2022-12-26T02:26:48.472Z,1.00
2022-12-26T02:27:48.586Z,1.00
2022-12-26T02:28:48.551Z,1.00
2022-12-26T02:29:48.460Z,1.00
2022-12-26T02:30:48.770Z,1.00
2022-12-26T02:31:48.469Z,1.00
2022-12-26T02:32:48.469Z,1.00
2022-12-26T02:33:48.381Z,1.00
2022-12-26T02:34:48.388Z,1.00
2022-12-26T02:35:48.385Z,1.00
2022-12-26T02:36:48.464Z,1.00
2022-12-26T02:37:48.368Z,1.00
2022-12-26T02:38:48.425Z,1.00
2022-12-26T02:39:48.311Z,1.00
2022-12-26T02:40:48.328Z,1.00
2022-12-26T02:41:48.395Z,1.00
2022-12-26T02:42:48.328Z,1.00
2022-12-26T02:43:48.284Z,1.00
2022-12-26T02:44:48.328Z,1.00
2022-12-26T02:45:48.384Z,1.00
2022-12-26T02:46:48.268Z,1.00
2022-12-26T02:47:48.279Z,1.00
2022-12-26T02:48:48.282Z,1.00
2022-12-26T02:49:48.222Z,1.00
2022-12-26T02:50:48.254Z,1.00
2022-12-26T02:51:48.301Z,1.00
2022-12-26T02:52:48.269Z,1.00
2022-12-26T02:53:48.202Z,1.00
2022-12-26T02:54:48.283Z,1.00
2022-12-26T02:55:48.184Z,1.00
2022-12-26T02:56:48.233Z,1.00
2022-12-26T02:57:48.197Z,1.00
2022-12-26T02:58:48.156Z,1.00
2022-12-26T02:59:54.148Z,1.00
2022-12-26T03:00:48.202Z,1.00
2022-12-26T03:01:48.241Z,1.00
2022-12-26T03:02:48.185Z,1.00
2022-12-26T03:03:48.071Z,1.00
2022-12-26T03:04:48.169Z,1.00
2022-12-26T03:05:48.075Z,1.00
2022-12-26T03:06:48.074Z,1.00
2022-12-26T03:07:48.024Z,1.00
2022-12-26T03:08:48.015Z,1.00
2022-12-26T03:09:48.035Z,1.00
2022-12-26T03:10:48.018Z,1.00
2022-12-26T03:11:48.024Z,1.00
2022-12-26T03:12:48.024Z,1.00
2022-12-26T03:13:47.960Z,1.00
2022-12-26T03:14:47.935Z,1.00
2022-12-26T03:15:47.995Z,1.00
2022-12-26T03:16:47.999Z,1.00
2022-12-26T03:17:47.913Z,1.00
2022-12-26T03:18:59.234Z,1.00
2022-12-26T03:19:47.960Z,1.00
2022-12-26T03:20:47.876Z,1.00
2022-12-26T03:21:47.883Z,1.00
2022-12-26T03:22:47.858Z,1.00
2022-12-26T03:23:47.861Z,1.00
2022-12-26T03:24:47.865Z,1.00
2022-12-26T03:25:47.870Z,1.00
2022-12-26T03:26:47.821Z,1.00
2022-12-26T03:27:47.825Z,1.00
2022-12-26T03:28:47.788Z,1.00
2022-12-26T03:29:47.798Z,1.00
2022-12-26T03:30:47.931Z,1.00
2022-12-26T03:31:47.809Z,1.00
2022-12-26T03:32:47.819Z,1.00
2022-12-26T03:33:47.758Z,1.00
2022-12-26T03:34:47.766Z,1.00
2022-12-26T03:35:47.757Z,1.00
2022-12-26T03:36:47.742Z,1.00
2022-12-26T03:37:50.183Z,1.00
2022-12-26T03:38:47.706Z,1.00
2022-12-26T03:39:47.780Z,1.00
2022-12-26T03:40:47.714Z,1.00
2022-12-26T03:41:47.677Z,1.00
2022-12-26T03:42:47.678Z,1.00
2022-12-26T03:43:47.711Z,1.00
2022-12-26T03:44:53.496Z,1.00
2022-12-26T03:45:47.779Z,1.00
2022-12-26T03:46:47.638Z,1.00
2022-12-26T03:47:47.635Z,1.00
2022-12-26T03:48:47.588Z,1.00
2022-12-26T03:49:47.647Z,1.00
2022-12-26T03:50:47.886Z,1.00
2022-12-26T03:51:47.616Z,1.00
2022-12-26T03:52:47.628Z,1.00
2022-12-26T03:53:47.544Z,1.00
2022-12-26T03:54:47.578Z,1.00
2022-12-26T03:55:47.559Z,1.00
2022-12-26T03:56:47.666Z,1.00
2022-12-26T03:57:47.497Z,1.00
2022-12-26T03:58:47.501Z,1.00
2022-12-26T03:59:47.554Z,1.00
2022-12-26T04:00:47.457Z,1.00
2022-12-26T04:01:47.502Z,1.00
2022-12-26T04:02:47.511Z,1.00
2022-12-26T04:03:47.529Z,1.00
2022-12-26T04:04:47.440Z,1.00
2022-12-26T04:05:47.402Z,1.00
2022-12-26T04:06:47.410Z,1.00
2022-12-26T04:07:57.763Z,1.00
2022-12-26T04:08:47.499Z,1.00
2022-12-26T04:09:47.431Z,1.00
2022-12-26T04:10:47.513Z,1.00
2022-12-26T04:11:47.346Z,1.00
2022-12-26T04:12:47.351Z,1.00
2022-12-26T04:13:47.371Z,1.00
2022-12-26T04:14:47.430Z,1.00
2022-12-26T04:15:47.348Z,1.00
2022-12-26T04:16:47.346Z,1.00
2022-12-26T04:17:47.334Z,1.00
2022-12-26T04:18:47.329Z,1.00
2022-12-26T04:19:47.294Z,1.00
2022-12-26T04:20:47.280Z,1.00
2022-12-26T04:21:47.276Z,1.00
2022-12-26T04:22:47.216Z,1.00
2022-12-26T04:23:47.285Z,1.00
2022-12-26T04:24:47.801Z,1.00
2022-12-26T04:25:48.677Z,1.00
2022-12-26T04:26:47.207Z,1.00
2022-12-26T04:27:47.223Z,1.00
2022-12-26T04:28:47.227Z,1.00
2022-12-26T04:29:47.263Z,1.00
2022-12-26T04:30:47.280Z,1.00
2022-12-26T04:31:47.137Z,1.00
2022-12-26T04:32:47.148Z,1.00
2022-12-26T04:33:47.156Z,1.00
2022-12-26T04:34:47.191Z,1.00
2022-12-26T04:35:47.197Z,1.00
2022-12-26T04:36:47.139Z,1.00
2022-12-26T04:37:47.097Z,1.00
2022-12-26T04:38:47.094Z,1.00
2022-12-26T04:39:47.103Z,1.00
2022-12-26T04:40:47.079Z,1.00
2022-12-26T04:41:47.123Z,1.00
2022-12-26T04:42:47.117Z,1.00
2022-12-26T04:43:51.381Z,1.00
2022-12-26T04:44:47.032Z,1.00
2022-12-26T04:45:47.040Z,1.00
2022-12-26T04:46:47.158Z,1.00
2022-12-26T04:47:47.028Z,1.00
2022-12-26T04:48:47.899Z,1.00
2022-12-26T04:49:46.970Z,1.00
2022-12-26T04:50:46.969Z,1.00
2022-12-26T04:51:46.973Z,1.00
2022-12-26T04:52:46.974Z,1.00
2022-12-26T04:53:46.971Z,1.00
2022-12-26T04:54:46.908Z,1.00
2022-12-26T04:55:46.899Z,1.00
2022-12-26T04:56:46.916Z,1.00
2022-12-26T04:57:46.912Z,1.00
2022-12-26T04:58:46.918Z,1.00
2022-12-26T04:59:46.925Z,1.00
2022-12-26T05:00:47.864Z,1.00
2022-12-26T05:01:46.982Z,1.00
2022-12-26T05:02:46.931Z,1.00
2022-12-26T05:03:46.897Z,1.00
2022-12-26T05:04:46.853Z,1.00
2022-12-26T05:05:46.830Z,1.00
2022-12-26T05:06:47.378Z,1.00
2022-12-26T05:07:46.768Z,1.00
2022-12-26T05:08:46.778Z,1.00
2022-12-26T05:09:46.787Z,1.00
2022-12-26T05:10:46.788Z,1.00
2022-12-26T05:11:46.804Z,1.00
2022-12-26T05:12:46.687Z,1.00
2022-12-26T05:13:46.709Z,1.00
2022-12-26T05:14:46.683Z,1.00
2022-12-26T05:15:46.786Z,1.00
2022-12-26T05:16:46.662Z,1.00
2022-12-26T05:17:46.742Z,1.00
2022-12-26T05:18:46.636Z,1.00
2022-12-26T05:19:46.570Z,1.00
2022-12-26T05:20:46.605Z,1.00
2022-12-26T05:21:46.592Z,1.00
2022-12-26T05:22:46.639Z,1.00
2022-12-26T05:23:46.658Z,1.00
2022-12-26T05:24:46.579Z,1.00
2022-12-26T05:25:46.556Z,1.00
2022-12-26T05:26:46.523Z,1.00
2022-12-26T05:27:46.528Z,1.00
2022-12-26T05:28:46.601Z,1.00
2022-12-26T05:29:46.542Z,1.00
2022-12-26T05:30:46.536Z,1.00
2022-12-26T05:31:46.624Z,1.00
2022-12-26T05:32:46.459Z,1.00
2022-12-26T05:33:46.468Z,1.00
2022-12-26T05:34:46.501Z,1.00
2022-12-26T05:35:46.491Z,1.00
2022-12-26T05:36:46.388Z,1.00
2022-12-26T05:37:46.392Z,1.00
2022-12-26T05:38:46.464Z,1.00
2022-12-26T05:39:46.498Z,1.00
2022-12-26T05:40:46.478Z,1.00
2022-12-26T05:41:46.879Z,1.00
2022-12-26T05:42:46.387Z,1.00
2022-12-26T05:43:46.392Z,1.00
2022-12-26T05:44:46.356Z,1.00
2022-12-26T05:45:46.425Z,1.00
2022-12-26T05:46:46.358Z,1.00
2022-12-26T05:47:51.669Z,1.00
2022-12-26T05:48:46.323Z,1.00
2022-12-26T05:49:46.319Z,1.00
2022-12-26T05:50:46.508Z,1.00
2022-12-26T05:51:46.332Z,1.00
2022-12-26T05:52:46.280Z,1.00
2022-12-26T05:53:46.286Z,1.00
2022-12-26T05:54:46.193Z,1.00
2022-12-26T05:55:46.196Z,1.00
2022-12-26T05:56:49.381Z,1.00
2022-12-26T05:57:46.242Z,1.00
2022-12-26T05:58:46.218Z,1.00
2022-12-26T05:59:46.386Z,1.00
2022-12-26T06:00:46.187Z,1.00
2022-12-26T06:01:46.259Z,1.00
2022-12-26T06:02:46.269Z,1.00
2022-12-26T06:03:46.210Z,1.00
2022-12-26T06:04:46.191Z,1.00
2022-12-26T06:05:46.431Z,1.00
2022-12-26T06:06:46.148Z,1.00
2022-12-26T06:07:46.140Z,1.00
2022-12-26T06:08:46.171Z,1.00
2022-12-26T06:09:46.161Z,1.00
2022-12-26T06:10:46.169Z,1.00
2022-12-26T06:11:48.999Z,1.00
2022-12-26T06:12:46.068Z,1.00
2022-12-26T06:13:46.028Z,1.00
2022-12-26T06:14:46.089Z,1.00
2022-12-26T06:15:46.046Z,1.00
2022-12-26T06:16:46.111Z,1.00
2022-12-26T06:17:46.010Z,1.00
2022-12-26T06:18:45.961Z,1.00
2022-12-26T06:19:47.071Z,1.00
2022-12-26T06:20:45.984Z,1.00
2022-12-26T06:21:46.056Z,1.00
2022-12-26T06:22:45.957Z,1.00
2022-12-26T06:23:45.962Z,1.00
2022-12-26T06:24:45.917Z,1.00
2022-12-26T06:25:45.915Z,1.00
2022-12-26T06:26:45.908Z,1.00
2022-12-26T06:27:45.975Z,1.00
2022-12-26T06:28:45.915Z,1.00
2022-12-26T06:29:45.828Z,1.00
2022-12-26T06:30:45.871Z,1.00
2022-12-26T06:31:45.907Z,1.00
2022-12-26T06:32:45.844Z,1.00
2022-12-26T06:33:45.864Z,1.00
2022-12-26T06:34:45.821Z,1.00
2022-12-26T06:35:45.761Z,1.00
2022-12-26T06:36:45.806Z,1.00
2022-12-26T06:37:45.777Z,1.00
2022-12-26T06:38:45.780Z,1.00
2022-12-26T06:39:45.790Z,1.00
2022-12-26T06:40:45.732Z,1.00
2022-12-26T06:41:45.701Z,1.00
2022-12-26T06:42:45.709Z,1.00
2022-12-26T06:43:45.777Z,1.00
2022-12-26T06:44:45.723Z,1.00
2022-12-26T06:45:45.732Z,1.00
2022-12-26T06:46:45.717Z,1.00
2022-12-26T06:47:45.641Z,1.00
2022-12-26T06:48:45.653Z,1.00
2022-12-26T06:49:45.691Z,1.00
2022-12-26T06:50:45.631Z,1.00
2022-12-26T06:51:45.673Z,1.00
2022-12-26T06:52:45.609Z,1.00
2022-12-26T06:53:45.586Z,1.00
2022-12-26T06:54:45.620Z,1.00
2022-12-26T06:55:45.630Z,1.00
2022-12-26T06:56:45.567Z,1.00
2022-12-26T06:57:45.641Z,1.00
2022-12-26T06:58:45.526Z,1.00
2022-12-26T06:59:45.547Z,1.00
2022-12-26T07:00:45.595Z,1.00
2022-12-26T07:01:45.741Z,1.00
2022-12-26T07:02:45.724Z,1.00
2022-12-26T07:03:51.296Z,1.00
2022-12-26T07:04:45.475Z,1.00
2022-12-26T07:05:45.544Z,1.00
2022-12-26T07:06:45.491Z,1.00
2022-12-26T07:07:45.495Z,1.00
2022-12-26T07:08:45.510Z,1.00
2022-12-26T07:09:45.472Z,1.00
2022-12-26T07:10:45.412Z,1.00
2022-12-26T07:11:45.432Z,1.00
2022-12-26T07:12:45.431Z,1.00
2022-12-26T07:13:45.432Z,1.00
2022-12-26T07:14:45.395Z,1.00
2022-12-26T07:15:45.391Z,1.00
2022-12-26T07:16:45.509Z,1.00
2022-12-26T07:17:45.367Z,1.00
2022-12-26T07:18:45.372Z,1.00
2022-12-26T07:19:45.323Z,1.00
2022-12-26T07:20:45.322Z,1.00
2022-12-26T07:21:45.335Z,1.00
2022-12-26T07:22:45.394Z,1.00
2022-12-26T07:23:45.301Z,1.00
2022-12-26T07:24:45.361Z,1.00
2022-12-26T07:25:45.312Z,1.00
2022-12-26T07:26:45.322Z,1.00
2022-12-26T07:27:45.286Z,1.00
2022-12-26T07:28:45.226Z,1.00
2022-12-26T07:29:45.233Z,1.00
2022-12-26T07:30:45.238Z,1.00
2022-12-26T07:31:45.372Z,1.00
2022-12-26T07:32:45.207Z,1.00
2022-12-26T07:33:45.217Z,1.00
2022-12-26T07:34:45.160Z,1.00
2022-12-26T07:35:45.252Z,1.00
2022-12-26T07:36:45.178Z,1.00
2022-12-26T07:37:45.135Z,1.00
2022-12-26T07:38:45.137Z,1.00
2022-12-26T07:39:45.125Z,1.00
2022-12-26T07:40:45.157Z,1.00
2022-12-26T07:41:45.163Z,1.00
2022-12-26T07:42:45.114Z,1.00
2022-12-26T07:43:45.080Z,1.00
2022-12-26T07:44:45.080Z,1.00
2022-12-26T07:45:46.047Z,1.00
2022-12-26T07:46:45.095Z,1.00
2022-12-26T07:47:45.148Z,1.00
2022-12-26T07:48:45.013Z,1.00
2022-12-26T07:49:44.991Z,1.00
2022-12-26T07:50:44.999Z,1.00
2022-12-26T07:51:44.998Z,1.00
2022-12-26T07:52:45.012Z,1.00
2022-12-26T07:53:45.020Z,1.00
2022-12-26T07:54:44.946Z,1.00
2022-12-26T07:55:44.926Z,1.00
2022-12-26T07:56:44.942Z,1.00
2022-12-26T07:57:49.444Z,1.00
2022-12-26T07:58:44.955Z,0.00
2022-12-26T07:59:44.957Z,0.00
2022-12-26T08:00:45.063Z,0.00
2022-12-26T08:01:45.219Z,0.00
2022-12-26T08:02:45.143Z,0.00
2022-12-26T08:03:45.058Z,0.00
2022-12-26T08:04:45.262Z,0.00
2022-12-26T08:05:44.912Z,0.00
2022-12-26T08:06:44.901Z,1.00
2022-12-26T08:07:44.823Z,1.00
2022-12-26T08:08:50.479Z,1.00
2022-12-26T08:09:44.822Z,1.00
2022-12-26T08:10:44.828Z,1.00
2022-12-26T08:11:44.802Z,1.00
2022-12-26T08:12:44.749Z,1.00
2022-12-26T08:13:44.756Z,2.00
2022-12-26T08:14:44.861Z,0.00
2022-12-26T08:15:44.817Z,0.00
2022-12-26T08:16:49.639Z,0.00
2022-12-26T08:17:44.779Z,2.00
2022-12-26T08:18:44.680Z,2.00
2022-12-26T08:19:44.682Z,2.00
2022-12-26T08:20:44.980Z,2.00
2022-12-26T08:21:44.695Z,1.00
2022-12-26T08:22:44.718Z,1.00
2022-12-26T08:23:44.669Z,1.00
2022-12-26T08:24:44.716Z,0.00
2022-12-26T08:25:44.724Z,1.00
2022-12-26T08:26:44.686Z,1.00
2022-12-26T08:27:44.639Z,4.00
2022-12-26T08:28:44.614Z,1.00
2022-12-26T08:29:44.633Z,1.00
2022-12-26T08:30:44.553Z,2.00
2022-12-26T08:31:44.572Z,5.00
2022-12-26T08:32:46.342Z,4.00
2022-12-26T08:33:44.593Z,5.00
2022-12-26T08:34:44.553Z,4.00
2022-12-26T08:35:44.660Z,3.00
2022-12-26T08:36:44.485Z,3.00
2022-12-26T08:37:44.498Z,3.00
2022-12-26T08:38:44.578Z,6.00
2022-12-26T08:39:44.512Z,4.00
2022-12-26T08:40:44.811Z,6.00
2022-12-26T08:41:44.485Z,5.00
2022-12-26T08:42:56.220Z,5.00
2022-12-26T08:44:25.262Z,7.00
2022-12-26T08:44:44.455Z,7.00
2022-12-26T08:45:44.504Z,7.00
2022-12-26T08:46:44.411Z,9.00
2022-12-26T08:47:44.426Z,9.00
2022-12-26T08:48:44.371Z,9.00
2022-12-26T08:49:44.372Z,9.00
2022-12-26T08:50:44.385Z,9.00
2022-12-26T08:51:44.348Z,10.00
2022-12-26T08:52:44.352Z,10.00
2022-12-26T08:53:44.362Z,9.00
2022-12-26T08:54:44.317Z,13.00
2022-12-26T08:55:44.323Z,12.00
2022-12-26T08:56:44.333Z,12.00
2022-12-26T08:57:44.275Z,14.00
2022-12-26T08:58:44.360Z,14.00
2022-12-26T08:59:44.248Z,14.00
2022-12-26T09:00:44.252Z,13.00
2022-12-26T09:01:44.331Z,11.00
2022-12-26T09:02:44.526Z,9.00
2022-12-26T09:03:44.220Z,13.00
2022-12-26T09:04:44.350Z,14.00
2022-12-26T09:05:44.279Z,15.00
2022-12-26T09:06:44.185Z,11.00
2022-12-26T09:07:44.244Z,12.00
2022-12-26T09:08:44.193Z,11.00
2022-12-26T09:09:44.193Z,11.00
2022-12-26T09:10:44.165Z,15.00
2022-12-26T09:11:44.217Z,13.00
2022-12-26T09:12:44.121Z,11.00
2022-12-26T09:13:44.138Z,11.00
2022-12-26T09:14:44.132Z,15.00
2022-12-26T09:15:44.099Z,19.00
2022-12-26T09:16:49.669Z,18.00
2022-12-26T09:17:44.115Z,18.00
2022-12-26T09:18:44.164Z,19.00
2022-12-26T09:19:44.063Z,18.00
2022-12-26T09:20:44.444Z,20.00
2022-12-26T09:21:44.045Z,20.00
2022-12-26T09:22:44.086Z,18.00
2022-12-26T09:23:43.996Z,18.00
2022-12-26T09:24:43.996Z,20.00
2022-12-26T09:25:44.007Z,21.00
2022-12-26T09:26:44.018Z,19.00
2022-12-26T09:27:44.016Z,18.00
2022-12-26T09:28:43.991Z,21.00
2022-12-26T09:29:43.988Z,28.00
2022-12-26T09:30:43.998Z,24.00
2022-12-26T09:31:44.015Z,25.00
2022-12-26T09:32:43.952Z,25.00
2022-12-26T09:33:43.917Z,24.00
2022-12-26T09:34:43.920Z,29.00
2022-12-26T09:35:43.874Z,29.00
2022-12-26T09:36:43.884Z,30.00
2022-12-26T09:37:43.881Z,27.00
2022-12-26T09:38:43.946Z,29.00
2022-12-26T09:39:43.860Z,30.00
2022-12-26T09:40:43.911Z,35.00
2022-12-26T09:41:43.866Z,37.00
2022-12-26T09:42:43.809Z,37.00
2022-12-26T09:43:49.818Z,41.00
2022-12-26T09:44:43.878Z,43.00
2022-12-26T09:45:43.835Z,42.00
2022-12-26T09:46:43.734Z,42.00
2022-12-26T09:47:43.740Z,42.00
2022-12-26T09:48:43.763Z,44.00
2022-12-26T09:49:43.816Z,46.00
2022-12-26T09:50:43.757Z,45.00
2022-12-26T09:51:43.733Z,45.00
2022-12-26T09:52:43.677Z,44.00
2022-12-26T09:53:43.738Z,45.00
2022-12-26T09:54:43.733Z,44.00
2022-12-26T09:55:43.689Z,41.00
2022-12-26T09:57:43.768Z,39.00
2022-12-26T09:58:43.618Z,39.00
2022-12-26T09:59:43.684Z,39.00
2022-12-26T10:00:43.651Z,37.00
2022-12-26T10:01:43.846Z,37.00
2022-12-26T10:02:43.654Z,35.00
2022-12-26T10:03:43.580Z,37.00
2022-12-26T10:04:43.572Z,39.00
2022-12-26T10:05:43.619Z,40.00
2022-12-26T10:06:43.535Z,42.00
2022-12-26T10:07:43.633Z,41.00
2022-12-26T10:08:43.560Z,44.00
2022-12-26T10:09:43.545Z,42.00
2022-12-26T10:10:43.526Z,41.00
2022-12-26T10:11:43.529Z,41.00
2022-12-26T10:12:43.540Z,39.00
2022-12-26T10:13:43.486Z,39.00
2022-12-26T10:14:43.514Z,41.00
2022-12-26T10:15:43.623Z,39.00
2022-12-26T10:16:43.464Z,41.00
2022-12-26T10:17:43.478Z,41.00
2022-12-26T10:18:43.484Z,41.00
2022-12-26T10:19:43.429Z,44.00
2022-12-26T10:20:43.424Z,51.00
2022-12-26T10:21:43.435Z,50.00
2022-12-26T10:22:43.406Z,48.00
2022-12-26T10:23:43.416Z,45.00
2022-12-26T10:24:43.417Z,45.00
2022-12-26T10:25:43.356Z,49.00
2022-12-26T10:26:43.436Z,50.00
2022-12-26T10:27:43.359Z,51.00
2022-12-26T10:28:43.339Z,49.00
2022-12-26T10:29:43.405Z,51.00
2022-12-26T10:30:43.384Z,52.00
2022-12-26T10:31:43.302Z,55.00
2022-12-26T10:32:43.308Z,57.00
2022-12-26T10:33:43.327Z,57.00
2022-12-26T10:34:43.276Z,65.00
2022-12-26T10:35:43.226Z,66.00
2022-12-26T10:36:43.293Z,68.00
2022-12-26T10:37:43.299Z,67.00
2022-12-26T10:38:43.251Z,67.00
2022-12-26T10:39:43.156Z,63.00
2022-12-26T10:40:43.221Z,62.00
2022-12-26T10:41:43.169Z,58.00
2022-12-26T10:42:43.243Z,63.00
2022-12-26T10:43:43.169Z,65.00
2022-12-26T10:44:43.195Z,65.00
2022-12-26T10:45:43.186Z,65.00
2022-12-26T10:46:43.704Z,66.00
2022-12-26T10:47:43.092Z,68.00
2022-12-26T10:48:43.104Z,66.00
2022-12-26T10:49:43.123Z,65.00
2022-12-26T10:50:43.078Z,65.00
2022-12-26T10:51:43.119Z,64.00
2022-12-26T10:52:43.042Z,64.00
2022-12-26T10:53:43.095Z,63.00
2022-12-26T10:54:43.039Z,72.00
2022-12-26T10:55:43.111Z,71.00
2022-12-26T10:56:43.036Z,67.00
2022-12-26T10:57:43.048Z,70.00
2022-12-26T10:58:43.046Z,67.00
2022-12-26T10:59:43.046Z,60.00
2022-12-26T11:00:42.983Z,62.00
2022-12-26T11:01:43.153Z,66.00
2022-12-26T11:02:43.223Z,74.00
2022-12-26T11:03:43.130Z,83.00
2022-12-26T11:05:13.133Z,88.00
2022-12-26T11:06:42.963Z,80.00
2022-12-26T11:07:42.896Z,76.00
2022-12-26T11:08:44.202Z,75.00
2022-12-26T11:09:43.007Z,70.00
2022-12-26T11:10:42.914Z,69.00
2022-12-26T11:11:42.888Z,71.00
2022-12-26T11:12:42.918Z,68.00
2022-12-26T11:13:42.902Z,70.00
2022-12-26T11:14:42.835Z,69.00
2022-12-26T11:15:43.556Z,65.00
2022-12-26T11:16:42.816Z,63.00
2022-12-26T11:17:42.827Z,61.00
2022-12-26T11:18:42.833Z,61.00
2022-12-26T11:19:42.877Z,62.00
2022-12-26T11:20:42.821Z,70.00
2022-12-26T11:21:42.829Z,72.00
2022-12-26T11:22:42.709Z,76.00
2022-12-26T11:23:42.733Z,80.00
2022-12-26T11:24:42.748Z,79.00
2022-12-26T11:25:42.801Z,85.00
2022-12-26T11:26:42.758Z,94.00
2022-12-26T11:27:42.663Z,98.00
2022-12-26T11:28:42.672Z,92.00
2022-12-26T11:29:42.685Z,94.00
2022-12-26T11:30:42.684Z,99.00
2022-12-26T11:31:42.743Z,101.00
2022-12-26T11:32:42.730Z,106.00
2022-12-26T11:33:42.623Z,106.00
2022-12-26T11:34:42.644Z,113.00
2022-12-26T11:35:42.627Z,113.00
2022-12-26T11:36:42.672Z,110.00
2022-12-26T11:37:42.694Z,107.00
2022-12-26T11:38:45.172Z,101.00
2022-12-26T11:39:42.594Z,99.00
2022-12-26T11:40:42.563Z,93.00
2022-12-26T11:41:42.608Z,90.00
2022-12-26T11:42:43.020Z,85.00
2022-12-26T11:43:42.524Z,81.00
2022-12-26T11:44:42.589Z,80.00
2022-12-26T11:45:42.480Z,75.00
2022-12-26T11:46:42.655Z,85.00
2022-12-26T11:47:42.451Z,82.00
2022-12-26T11:48:42.478Z,88.00
2022-12-26T11:49:42.459Z,106.00
2022-12-26T11:50:42.471Z,114.00
2022-12-26T11:51:42.399Z,109.00
2022-12-26T11:52:42.721Z,104.00
2022-12-26T11:53:42.420Z,111.00
2022-12-26T11:54:42.445Z,107.00
2022-12-26T11:55:42.453Z,106.00
2022-12-26T11:56:42.357Z,119.00
2022-12-26T11:57:42.378Z,125.00
2022-12-26T11:58:42.343Z,121.00
2022-12-26T11:59:42.382Z,116.00
2022-12-26T12:00:42.360Z,120.00
2022-12-26T12:01:42.555Z,121.00
2022-12-26T12:02:42.554Z,119.00
2022-12-26T12:03:48.542Z,122.00
2022-12-26T12:04:42.297Z,122.00
2022-12-26T12:05:42.323Z,120.00
2022-12-26T12:06:42.266Z,127.00
2022-12-26T12:07:42.307Z,138.00
2022-12-26T12:08:42.300Z,147.00
2022-12-26T12:09:42.251Z,156.00
2022-12-26T12:10:42.222Z,152.00
2022-12-26T12:11:42.229Z,146.00
2022-12-26T12:12:42.242Z,149.00
2022-12-26T12:13:42.354Z,148.00
2022-12-26T12:14:42.234Z,146.00
2022-12-26T12:15:42.211Z,150.00
2022-12-26T12:16:42.298Z,150.00
2022-12-26T12:17:42.170Z,145.00
2022-12-26T12:18:42.184Z,142.00
2022-12-26T12:19:42.533Z,135.00
2022-12-26T12:20:42.593Z,128.00
2022-12-26T12:21:42.156Z,129.00
2022-12-26T12:22:42.163Z,126.00
2022-12-26T12:23:42.163Z,116.00
2022-12-26T12:24:42.996Z,112.00
2022-12-26T12:25:42.078Z,109.00
2022-12-26T12:26:42.104Z,108.00
2022-12-26T12:27:42.092Z,110.00
2022-12-26T12:28:42.100Z,118.00
2022-12-26T12:29:42.123Z,120.00
2022-12-26T12:30:42.731Z,127.00
2022-12-26T12:31:42.052Z,129.00
2022-12-26T12:32:42.024Z,128.00
2022-12-26T12:33:42.768Z,124.00
2022-12-26T12:34:42.047Z,124.00
2022-12-26T12:35:42.060Z,115.00
2022-12-26T12:36:42.045Z,110.00
2022-12-26T12:37:41.969Z,101.00
2022-12-26T12:38:42.196Z,94.00
2022-12-26T12:39:41.971Z,93.00
2022-12-26T12:40:41.989Z,94.00
2022-12-26T12:41:42.003Z,98.00
2022-12-26T12:42:41.993Z,102.00
2022-12-26T12:43:42.016Z,101.00
2022-12-26T12:44:41.905Z,98.00
2022-12-26T12:45:41.953Z,96.00
2022-12-26T12:46:41.925Z,94.00
2022-12-26T12:47:41.915Z,85.00
2022-12-26T12:48:41.939Z,84.00
2022-12-26T12:49:42.061Z,83.00
2022-12-26T12:50:41.856Z,79.00
2022-12-26T12:51:41.864Z,84.00
2022-12-26T12:52:41.876Z,82.00
2022-12-26T12:53:41.873Z,85.00
2022-12-26T12:54:41.874Z,88.00
2022-12-26T12:55:41.784Z,93.00
2022-12-26T12:56:42.857Z,92.00
2022-12-26T12:57:41.805Z,96.00
2022-12-26T12:58:41.807Z,101.00
2022-12-26T12:59:41.810Z,99.00
2022-12-26T13:00:41.925Z,108.00
2022-12-26T13:01:41.784Z,113.00
2022-12-26T13:02:41.939Z,123.00
2022-12-26T13:03:41.731Z,132.00
2022-12-26T13:04:41.776Z,139.00
2022-12-26T13:05:42.156Z,138.00
2022-12-26T13:06:41.749Z,137.00
2022-12-26T13:07:46.925Z,148.00
2022-12-26T13:08:41.871Z,151.00
2022-12-26T13:09:41.685Z,153.00